Time;durP1;ratioP1;P1;durP2;ratioP2;P2;SDS_P1;SDS_P2;PMS_P1;PMS_P2;Temp;Humidity;BMP_temperature;BMP_pressure;BME280_temperature;BME280_humidity;BME280_pressure;Samples;Min_cycle;Max_cycle;Signal;HPM_P1;HPM_P2
2021/11/18 00:00:52;;;;;;;11.55;4.03;;;8.30;86.90;;;;;;5117064;28;20031;-76
2021/11/18 00:03:19;;;;;;;9.82;4.22;;;8.30;86.90;;;;;;5098879;28;20030;-84
2021/11/18 00:05:45;;;;;;;10.00;3.90;;;8.20;86.80;;;;;;5107411;28;20206;-84
2021/11/18 00:08:11;;;;;;;8.73;4.80;;;8.20;87.50;;;;;;5107100;28;20055;-84
2021/11/18 00:10:43;;;;;;;11.75;4.20;;;8.20;87.00;;;;;;5124494;28;20027;-85
2021/11/18 00:13:12;;;;;;;8.48;4.07;;;8.20;87.00;;;;;;5125313;28;20027;-86
2021/11/18 00:15:38;;;;;;;11.70;3.95;;;8.20;87.10;;;;;;5106497;28;20016;-86
2021/11/18 00:18:07;;;;;;;14.23;4.20;;;8.20;87.10;;;;;;5124719;28;20030;-85
2021/11/18 00:20:46;;;;;;;10.30;4.25;;;8.20;87.10;;;;;;5117121;28;20031;-77
2021/11/18 00:23:11;;;;;;;14.30;4.78;;;8.20;87.10;;;;;;5098153;28;20028;-77
2021/11/18 00:25:38;;;;;;;11.30;4.45;;;8.20;87.20;;;;;;5116472;28;20077;-77
2021/11/18 00:28:03;;;;;;;7.30;4.00;;;8.10;87.10;;;;;;5098141;28;20023;-77
2021/11/18 00:30:29;;;;;;;9.70;4.00;;;8.10;87.10;;;;;;5116472;28;20417;-77
2021/11/18 00:32:55;;;;;;;12.90;4.00;;;8.10;87.20;;;;;;5116773;28;20471;-77
2021/11/18 00:35:25;;;;;;;10.23;4.57;;;8.10;87.20;;;;;;5103562;28;20023;-85
2021/11/18 00:37:51;;;;;;;10.10;4.65;;;8.10;87.20;;;;;;5106001;28;20020;-86
2021/11/18 00:40:21;;;;;;;8.10;3.70;;;8.00;87.20;;;;;;5106014;28;20098;-86
2021/11/18 00:42:47;;;;;;;13.10;4.25;;;8.00;87.30;;;;;;5124724;28;20100;-85
2021/11/18 00:45:14;;;;;;;13.85;4.25;;;8.00;87.30;;;;;;5105561;28;20031;-75
2021/11/18 00:47:40;;;;;;;9.55;3.90;;;8.00;87.40;;;;;;5097859;28;20167;-75
2021/11/18 00:50:07;;;;;;;9.90;4.47;;;8.00;87.40;;;;;;5088936;28;20134;-78
2021/11/18 00:52:32;;;;;;;12.73;4.43;;;8.00;87.40;;;;;;5114791;28;20027;-77
2021/11/18 00:54:58;;;;;;;9.70;4.30;;;8.00;87.40;;;;;;5114772;28;20031;-77
2021/11/18 00:57:24;;;;;;;10.07;3.83;;;8.00;87.40;;;;;;5096622;28;20095;-77
2021/11/18 00:59:49;;;;;;;13.55;3.88;;;8.00;87.40;;;;;;5096520;28;20016;-77
2021/11/18 01:02:16;;;;;;;11.40;4.30;;;8.00;87.40;;;;;;5096439;28;20023;-76
2021/11/18 01:04:43;;;;;;;11.05;4.30;;;8.00;87.40;;;;;;5096530;28;20454;-77
2021/11/18 01:07:09;;;;;;;9.25;4.18;;;7.90;87.40;;;;;;5096423;28;20068;-77
2021/11/18 01:12:58;;;;;;;11.20;4.03;;;7.90;87.40;;;;;;5114977;28;20043;-77
2021/11/18 01:15:27;;;;;;;10.05;3.97;;;7.90;87.40;;;;;;5096369;28;20040;-77
2021/11/18 01:17:53;;;;;;;9.43;4.13;;;7.90;87.40;;;;;;5114531;28;20049;-77
2021/11/18 01:20:23;;;;;;;10.18;3.85;;;7.90;87.50;;;;;;5114690;28;20483;-77
2021/11/18 01:22:50;;;;;;;14.80;4.45;;;7.90;87.50;;;;;;5096544;28;20049;-77
2021/11/18 01:25:16;;;;;;;11.40;4.63;;;7.80;87.40;;;;;;5096024;28;20024;-77
2021/11/18 01:27:43;;;;;;;13.60;4.45;;;7.80;87.50;;;;;;5114332;28;20050;-77
2021/11/18 01:30:15;;;;;;;10.88;4.07;;;7.80;87.50;;;;;;5095993;28;20027;-77
2021/11/18 01:32:41;;;;;;;9.65;4.25;;;7.80;87.60;;;;;;5096002;28;20019;-77
2021/11/18 01:35:07;;;;;;;7.05;3.92;;;7.80;87.60;;;;;;5114177;28;20019;-72
2021/11/18 01:37:33;;;;;;;11.45;3.72;;;7.80;87.70;;;;;;5095929;28;20110;-73
2021/11/18 01:39:59;;;;;;;11.05;4.70;;;7.80;87.70;;;;;;5095848;28;20474;-73
2021/11/18 01:42:24;;;;;;;13.63;4.28;;;7.80;87.70;;;;;;5095841;28;20077;-72
2021/11/18 01:44:51;;;;;;;12.57;4.32;;;7.70;87.70;;;;;;5095660;28;20055;-72
2021/11/18 01:47:18;;;;;;;12.02;4.47;;;7.70;87.70;;;;;;5095501;28;20015;-72
2021/11/18 01:52:27;;;;;;;11.23;4.65;;;7.70;87.70;;;;;;5116387;27;20424;-71
2021/11/18 01:54:53;;;;;;;11.90;4.20;;;7.70;87.80;;;;;;5109698;28;20474;-72
2021/11/18 01:57:24;;;;;;;9.27;4.05;;;7.60;87.80;;;;;;5111109;28;20028;-72
2021/11/18 01:59:51;;;;;;;9.05;4.00;;;7.60;87.90;;;;;;5109570;28;20388;-72
2021/11/18 02:02:19;;;;;;;9.85;4.10;;;7.60;87.90;;;;;;5109455;28;20031;-71
2021/11/18 02:05:06;;;;;;;12.18;3.90;;;7.60;87.90;;;;;;5109602;28;20077;-73
2021/11/18 02:07:32;;;;;;;9.82;4.07;;;7.60;87.90;;;;;;5109470;28;20077;-72
2021/11/18 02:09:58;;;;;;;8.98;4.15;;;7.70;88.00;;;;;;5110619;28;20399;-72
2021/11/18 02:12:27;;;;;;;13.20;4.38;;;7.70;88.10;;;;;;5109368;28;20369;-73
2021/11/18 02:14:54;;;;;;;10.27;4.32;;;7.70;88.00;;;;;;5109085;28;20119;-72
2021/11/18 02:17:22;;;;;;;10.15;4.50;;;7.70;88.00;;;;;;5109132;28;20024;-73
2021/11/18 02:20:00;;;;;;;9.07;4.50;;;7.70;87.90;;;;;;5110456;28;20102;-72
2021/11/18 02:22:27;;;;;;;8.27;4.38;;;7.70;87.90;;;;;;5109101;28;20024;-72
2021/11/18 02:24:57;;;;;;;7.93;3.83;;;7.70;87.90;;;;;;5109081;28;20190;-72
2021/11/18 02:27:30;;;;;;;11.85;4.40;;;7.70;87.90;;;;;;5110174;28;20038;-72
2021/11/18 02:29:57;;;;;;;10.48;4.10;;;7.70;87.90;;;;;;5108812;28;20032;-72
2021/11/18 02:32:27;;;;;;;13.02;4.38;;;7.70;87.80;;;;;;5108727;28;20020;-72
2021/11/18 02:34:57;;;;;;;10.05;4.70;;;7.70;87.80;;;;;;5108691;28;20501;-72
2021/11/18 02:37:24;;;;;;;8.82;4.45;;;7.70;88.40;;;;;;5110071;28;20024;-72
2021/11/18 02:39:50;;;;;;;10.15;4.25;;;7.70;87.80;;;;;;5108554;28;20057;-72
2021/11/18 02:42:17;;;;;;;10.18;4.13;;;7.70;87.80;;;;;;5108573;28;20097;-72
2021/11/18 02:44:43;;;;;;;13.35;4.95;;;7.70;87.80;;;;;;5108532;28;20059;-72
2021/11/18 02:47:12;;;;;;;13.90;5.30;;;7.80;87.80;;;;;;5108580;28;20141;-72
2021/11/18 02:49:45;;;;;;;11.27;4.18;;;7.80;87.70;;;;;;5108538;28;20032;-72
2021/11/18 02:52:13;;;;;;;11.27;5.15;;;7.80;87.60;;;;;;5108220;28;20042;-72
2021/11/18 02:54:39;;;;;;;16.55;5.07;;;7.90;87.60;;;;;;5108384;28;20028;-72
2021/11/18 02:57:05;;;;;;;13.32;5.07;;;7.90;87.60;;;;;;5109781;28;20022;-72
2021/11/18 02:59:32;;;;;;;11.88;5.00;;;7.90;87.60;;;;;;5108445;28;20048;-72
2021/11/18 03:01:57;;;;;;;11.45;5.22;;;7.90;87.50;;;;;;5104763;28;20055;-73
2021/11/18 03:04:23;;;;;;;11.50;4.70;;;7.90;87.50;;;;;;5094711;28;20496;-72
2021/11/18 03:06:48;;;;;;;10.40;5.10;;;8.00;87.50;;;;;;5095828;28;20095;-75
2021/11/18 03:09:14;;;;;;;10.30;5.10;;;8.00;87.50;;;;;;5095545;28;20039;-75
2021/11/18 03:11:40;;;;;;;8.70;4.80;;;8.00;87.40;;;;;;5094374;28;20028;-75
2021/11/18 03:14:06;;;;;;;13.20;5.22;;;8.10;87.50;;;;;;5094684;28;20048;-75
2021/11/18 03:16:32;;;;;;;10.32;5.03;;;8.00;87.40;;;;;;5095814;28;20024;-75
2021/11/18 03:18:57;;;;;;;11.07;4.70;;;8.10;87.40;;;;;;5095635;28;20027;-72
2021/11/18 03:21:26;;;;;;;9.80;4.70;;;8.10;87.40;;;;;;5095487;28;20484;-72
2021/11/18 03:23:52;;;;;;;11.80;4.53;;;8.10;87.40;;;;;;5094182;28;20115;-73
2021/11/18 03:26:25;;;;;;;15.43;5.35;;;8.10;87.40;;;;;;5094096;28;20024;-72
2021/11/18 03:28:50;;;;;;;17.90;4.95;;;8.10;87.40;;;;;;5094051;28;20031;-72
2021/11/18 03:31:18;;;;;;;14.10;5.25;;;8.20;87.50;;;;;;5095259;28;20392;-73
2021/11/18 03:33:50;;;;;;;12.98;5.30;;;8.20;87.40;;;;;;5093968;28;20118;-73
2021/11/18 03:36:18;;;;;;;15.05;5.25;;;8.20;87.50;;;;;;5094036;28;20514;-74
2021/11/18 03:38:44;;;;;;;12.55;4.93;;;8.20;87.50;;;;;;5095422;28;20024;-73
2021/11/18 03:41:10;;;;;;;10.73;4.55;;;8.20;87.50;;;;;;5093786;28;20488;-73
2021/11/18 03:43:40;;;;;;;11.23;5.38;;;8.20;87.50;;;;;;5093782;28;20028;-73
2021/11/18 03:46:07;;;;;;;12.32;5.43;;;8.30;87.50;;;;;;5095002;28;20523;-73
2021/11/18 03:48:34;;;;;;;13.77;5.68;;;8.30;87.50;;;;;;5093688;28;20024;-73
2021/11/18 03:51:02;;;;;;;9.98;4.95;;;8.30;87.50;;;;;;5093387;28;20040;-73
2021/11/18 03:53:28;;;;;;;11.52;5.00;;;8.30;87.50;;;;;;5093523;28;20031;-72
2021/11/18 03:55:54;;;;;;;12.52;5.65;;;8.30;87.50;;;;;;5093646;28;20039;-73
2021/11/18 03:58:19;;;;;;;12.85;4.95;;;8.30;87.50;;;;;;5093649;28;20114;-73
2021/11/18 04:00:46;;;;;;;11.10;5.10;;;8.30;87.50;;;;;;5095003;28;20560;-72
2021/11/18 04:03:14;;;;;;;13.88;5.03;;;8.30;87.50;;;;;;5094870;28;20032;-72
2021/11/18 04:05:41;;;;;;;12.27;5.45;;;8.40;87.50;;;;;;5094938;28;20031;-73
2021/11/18 04:08:08;;;;;;;12.52;4.97;;;8.40;87.50;;;;;;5094821;28;20096;-73
2021/11/18 04:10:36;;;;;;;13.82;4.80;;;8.40;87.50;;;;;;5093299;28;20028;-72
2021/11/18 04:13:03;;;;;;;11.15;5.22;;;8.40;87.50;;;;;;5094711;28;20107;-73
2021/11/18 04:15:30;;;;;;;12.75;4.85;;;8.40;87.40;;;;;;5092325;28;20071;-73
2021/11/18 04:17:56;;;;;;;14.18;5.00;;;8.50;87.50;;;;;;5093277;28;20049;-73
2021/11/18 04:20:23;;;;;;;12.13;4.78;;;8.50;87.50;;;;;;5093197;28;20082;-72
2021/11/18 04:22:50;;;;;;;12.70;5.18;;;8.50;87.50;;;;;;5093138;28;20024;-73
2021/11/18 04:25:18;;;;;;;11.27;4.90;;;8.50;87.50;;;;;;5093047;28;20024;-73
2021/11/18 04:27:44;;;;;;;17.30;5.63;;;8.50;87.50;;;;;;5094105;28;20035;-72
2021/11/18 04:30:14;;;;;;;13.18;4.70;;;8.50;87.50;;;;;;5092873;28;20020;-73
2021/11/18 04:32:39;;;;;;;11.45;4.70;;;8.50;87.50;;;;;;5094186;28;20024;-73
2021/11/18 04:35:07;;;;;;;12.05;4.63;;;8.50;87.50;;;;;;5092900;28;20020;-72
2021/11/18 04:37:33;;;;;;;14.48;4.95;;;8.60;87.50;;;;;;5092841;28;20035;-72
2021/11/18 04:39:58;;;;;;;12.13;4.90;;;8.60;87.50;;;;;;5094183;28;20475;-72
2021/11/18 04:42:24;;;;;;;10.93;4.80;;;8.60;87.50;;;;;;5092840;28;20020;-72
2021/11/18 04:44:50;;;;;;;13.77;5.47;;;8.60;87.50;;;;;;5092702;28;20024;-73
2021/11/18 04:47:15;;;;;;;12.50;4.97;;;8.60;87.50;;;;;;5093935;28;20028;-72
2021/11/18 04:49:44;;;;;;;13.38;4.90;;;8.60;87.50;;;;;;5092654;28;20031;-74
2021/11/18 04:52:13;;;;;;;11.88;4.88;;;8.60;87.50;;;;;;5092427;28;20065;-72
2021/11/18 04:54:39;;;;;;;13.00;4.97;;;8.60;87.50;;;;;;5092620;28;20024;-72
2021/11/18 04:57:05;;;;;;;12.88;4.80;;;8.60;87.50;;;;;;5092562;28;20047;-72
2021/11/18 04:59:31;;;;;;;17.95;5.53;;;8.60;87.50;;;;;;5092501;28;20069;-72
2021/11/18 05:01:57;;;;;;;13.10;5.60;;;8.60;87.60;;;;;;5093682;28;20032;-73
2021/11/18 05:04:23;;;;;;;11.80;5.57;;;8.50;87.60;;;;;;5092418;28;20032;-74
2021/11/18 05:06:49;;;;;;;12.30;5.07;;;8.60;87.70;;;;;;5092511;28;20483;-72
2021/11/18 05:09:15;;;;;;;18.98;6.55;;;8.60;87.70;;;;;;5093703;28;20099;-72
2021/11/18 05:11:42;;;;;;;16.15;6.13;;;8.50;87.70;;;;;;5092324;28;20120;-73
2021/11/18 05:14:09;;;;;;;15.38;5.60;;;8.60;87.70;;;;;;5093604;28;20056;-72
2021/11/18 05:16:35;;;;;;;14.70;5.40;;;8.50;87.80;;;;;;5092285;28;20020;-73
2021/11/18 05:19:00;;;;;;;13.02;5.03;;;8.50;87.80;;;;;;5092108;28;20024;-72
2021/11/18 05:21:28;;;;;;;15.93;5.50;;;8.50;87.80;;;;;;5093322;28;20036;-72
2021/11/18 05:23:55;;;;;;;16.95;5.63;;;8.60;87.80;;;;;;5091928;28;20024;-71
2021/11/18 05:26:22;;;;;;;13.90;5.45;;;8.60;87.80;;;;;;5091710;28;20373;-72
2021/11/18 05:28:49;;;;;;;11.45;5.28;;;8.60;87.80;;;;;;5091835;28;20506;-73
2021/11/18 05:31:17;;;;;;;15.77;6.00;;;8.60;87.80;;;;;;5091836;28;20016;-72
2021/11/18 05:33:44;;;;;;;11.15;5.50;;;8.60;87.80;;;;;;5093157;28;20090;-72
2021/11/18 05:36:10;;;;;;;13.98;5.43;;;8.60;87.80;;;;;;5091866;28;20519;-72
2021/11/18 05:38:36;;;;;;;15.20;5.65;;;8.60;87.80;;;;;;5091895;28;20057;-72
2021/11/18 05:41:02;;;;;;;12.50;5.82;;;8.60;87.80;;;;;;5091680;28;20035;-73
2021/11/18 05:43:31;;;;;;;14.90;5.55;;;8.70;87.80;;;;;;5091808;28;20028;-72
2021/11/18 05:45:56;;;;;;;15.82;5.80;;;8.70;87.80;;;;;;5091702;28;20135;-72
2021/11/18 05:48:22;;;;;;;13.35;5.78;;;8.70;87.80;;;;;;5091842;28;20054;-72
2021/11/18 05:50:55;;;;;;;22.88;5.93;;;8.70;87.70;;;;;;5091503;28;20044;-72
2021/11/18 05:53:25;;;;;;;13.77;6.10;;;8.70;87.70;;;;;;5091781;28;20066;-72
2021/11/18 05:55:52;;;;;;;17.38;6.40;;;8.70;87.70;;;;;;5091857;28;20384;-72
2021/11/18 05:58:19;;;;;;;19.83;6.55;;;8.70;87.70;;;;;;5092978;28;20480;-72
2021/11/18 06:00:45;;;;;;;14.07;5.88;;;8.70;87.70;;;;;;5091763;28;20063;-73
2021/11/18 06:03:11;;;;;;;16.48;6.10;;;8.70;87.70;;;;;;5091536;28;20063;-72
2021/11/18 06:05:37;;;;;;;17.33;5.78;;;8.70;87.80;;;;;;5091607;28;20024;-72
2021/11/18 06:08:03;;;;;;;15.13;5.90;;;8.70;87.80;;;;;;5091432;28;20047;-72
2021/11/18 06:10:31;;;;;;;17.10;6.50;;;8.70;87.80;;;;;;5091746;28;20185;-72
2021/11/18 06:12:57;;;;;;;15.05;6.28;;;8.70;87.70;;;;;;5091347;28;20036;-72
2021/11/18 06:15:23;;;;;;;16.30;6.55;;;8.70;87.80;;;;;;5091543;28;20024;-71
2021/11/18 06:17:49;;;;;;;16.88;6.25;;;8.70;87.80;;;;;;5091450;28;20503;-71
2021/11/18 06:20:16;;;;;;;18.77;6.57;;;8.70;87.80;;;;;;5091390;28;20024;-73
2021/11/18 06:22:43;;;;;;;15.65;6.88;;;8.70;87.80;;;;;;5091487;28;20028;-72
2021/11/18 06:25:11;;;;;;;18.00;6.85;;;8.70;87.80;;;;;;5091369;28;20073;-72
2021/11/18 06:27:40;;;;;;;19.80;6.10;;;8.80;87.80;;;;;;5091850;28;20115;-71
2021/11/18 06:30:11;;;;;;;14.75;6.30;;;8.80;87.80;;;;;;5091242;28;20046;-71
2021/11/18 06:32:37;;;;;;;18.48;6.88;;;8.70;87.80;;;;;;5091321;28;20111;-72
2021/11/18 06:35:03;;;;;;;19.08;7.05;;;8.80;87.80;;;;;;5091219;28;20115;-72
2021/11/18 06:37:28;;;;;;;17.52;6.40;;;8.70;87.80;;;;;;5093630;28;20062;-72
2021/11/18 06:39:54;;;;;;;17.70;6.60;;;8.80;87.90;;;;;;5095147;28;20034;-72
2021/11/18 06:42:20;;;;;;;19.83;7.35;;;8.80;87.80;;;;;;5092121;28;20122;-73
2021/11/18 06:44:45;;;;;;;14.55;6.25;;;8.80;87.90;;;;;;5094856;28;20028;-73
2021/11/18 06:47:11;;;;;;;20.20;6.53;;;8.80;87.90;;;;;;5092158;28;20028;-73
2021/11/18 06:49:37;;;;;;;18.88;6.32;;;8.80;87.90;;;;;;5096186;28;20103;-71
2021/11/18 06:52:05;;;;;;;16.38;6.50;;;8.80;87.90;;;;;;5095955;28;20044;-72
2021/11/18 06:54:31;;;;;;;17.67;6.75;;;8.80;87.90;;;;;;5094818;28;20035;-72
2021/11/18 06:56:57;;;;;;;18.85;6.75;;;8.80;87.90;;;;;;5094694;28;20012;-72
2021/11/18 06:59:23;;;;;;;19.88;7.00;;;8.80;87.90;;;;;;5094710;28;20016;-72
2021/11/18 07:01:50;;;;;;;19.65;7.15;;;8.80;87.90;;;;;;5094622;28;20024;-72
2021/11/18 07:04:17;;;;;;;17.95;7.10;;;8.80;87.90;;;;;;5095836;28;20028;-72
2021/11/18 07:06:43;;;;;;;17.58;6.53;;;8.70;87.90;;;;;;5096157;28;20487;-72
2021/11/18 07:09:10;;;;;;;20.00;7.32;;;8.70;87.90;;;;;;5108501;28;20088;-85
2021/11/18 07:11:36;;;;;;;20.35;7.38;;;8.70;87.90;;;;;;5110115;28;20034;-85
2021/11/18 07:14:03;;;;;;;18.15;7.03;;;8.70;88.60;;;;;;5110673;28;20038;-85
2021/11/18 07:16:30;;;;;;;15.73;7.25;;;8.70;88.00;;;;;;5109501;28;20021;-85
2021/11/18 07:18:55;;;;;;;16.02;6.43;;;8.70;88.00;;;;;;5110340;28;20098;-84
2021/11/18 07:21:23;;;;;;;17.90;6.72;;;8.70;88.00;;;;;;5111376;28;20039;-85
2021/11/18 07:23:50;;;;;;;19.80;6.53;;;8.80;88.10;;;;;;5109554;28;20510;-85
2021/11/18 07:26:16;;;;;;;19.63;6.50;;;8.70;88.00;;;;;;5110737;28;20483;-85
2021/11/18 07:28:42;;;;;;;22.33;7.70;;;8.70;88.00;;;;;;5111360;28;20032;-86
2021/11/18 07:31:10;;;;;;;22.38;7.25;;;8.80;88.10;;;;;;5109290;28;20020;-86
2021/11/18 07:33:36;;;;;;;18.80;7.40;;;8.70;88.70;;;;;;5108418;28;20020;-86
2021/11/18 07:36:04;;;;;;;20.13;7.40;;;8.70;88.10;;;;;;5107629;28;20430;-86
2021/11/18 07:38:32;;;;;;;20.17;6.90;;;8.70;88.10;;;;;;5107922;28;20049;-84
2021/11/18 07:40:59;;;;;;;20.85;7.68;;;8.70;88.20;;;;;;5109536;28;20062;-86
2021/11/18 07:43:29;;;;;;;15.40;7.40;;;8.70;88.30;;;;;;5107921;28;20176;-87
2021/11/18 07:45:58;;;;;;;19.65;7.60;;;8.70;88.30;;;;;;5107875;28;20028;-86
2021/11/18 07:48:24;;;;;;;17.98;7.07;;;8.60;88.30;;;;;;5107590;28;20024;-86
2021/11/18 07:54:27;;;;;;;15.98;6.88;;;8.60;88.50;;;;;;5109089;28;20045;-86
2021/11/18 07:56:54;;;;;;;23.08;8.05;;;8.60;88.50;;;;;;5109468;28;20020;-86
2021/11/18 07:59:22;;;;;;;20.55;7.22;;;8.50;88.50;;;;;;5109092;28;20499;-84
2021/11/18 08:01:47;;;;;;;17.02;6.80;;;8.50;88.60;;;;;;5109523;28;20024;-85
2021/11/18 08:04:15;;;;;;;19.52;7.22;;;8.50;88.60;;;;;;5110448;28;20060;-86
2021/11/18 08:06:42;;;;;;;20.95;7.47;;;8.50;88.60;;;;;;5110451;28;20028;-85
2021/11/18 08:09:10;;;;;;;18.23;7.07;;;8.60;88.70;;;;;;5108616;28;20036;-85
2021/11/18 08:11:45;;;;;;;20.92;7.18;;;8.60;88.70;;;;;;5109258;28;20032;-85
2021/11/18 08:14:13;;;;;;;16.60;7.05;;;8.60;88.70;;;;;;5108145;28;20028;-85
2021/11/18 08:16:40;;;;;;;19.27;7.10;;;8.60;88.60;;;;;;5106513;28;20024;-72
2021/11/18 08:19:06;;;;;;;18.85;7.35;;;8.70;88.70;;;;;;5093238;28;20089;-72
2021/11/18 08:21:33;;;;;;;19.23;7.72;;;8.60;88.60;;;;;;5093010;28;20115;-73
2021/11/18 08:24:00;;;;;;;25.48;8.02;;;8.70;88.60;;;;;;5094377;28;20055;-74
2021/11/18 08:26:27;;;;;;;22.60;7.82;;;8.70;88.60;;;;;;5092949;28;20051;-75
2021/11/18 08:28:53;;;;;;;18.45;7.88;;;8.70;88.60;;;;;;5092751;28;20028;-73
2021/11/18 08:31:20;;;;;;;28.17;10.35;;;8.70;88.50;;;;;;5092806;28;20395;-74
2021/11/18 08:33:46;;;;;;;22.92;9.13;;;8.80;88.50;;;;;;5092601;28;20028;-74
2021/11/18 08:36:56;;;;;;;21.15;8.68;;;8.80;88.50;;;;;;5094138;28;20021;-74
2021/11/18 08:39:24;;;;;;;21.67;8.55;;;8.80;88.50;;;;;;5092710;28;20024;-74
2021/11/18 08:41:55;;;;;;;24.48;9.02;;;8.80;88.50;;;;;;5092834;28;20027;-74
2021/11/18 08:44:21;;;;;;;21.98;8.55;;;8.80;88.50;;;;;;5092524;28;20034;-75
2021/11/18 08:46:48;;;;;;;24.30;8.55;;;8.80;88.60;;;;;;5092551;28;20073;-74
2021/11/18 08:49:15;;;;;;;18.73;8.50;;;8.80;88.60;;;;;;5092619;28;20062;-75
2021/11/18 08:51:41;;;;;;;22.92;8.77;;;8.80;88.50;;;;;;5093482;28;20047;-76
2021/11/18 08:54:16;;;;;;;28.73;9.68;;;8.80;88.50;;;;;;5092706;28;20143;-74
2021/11/18 08:56:43;;;;;;;23.48;9.48;;;8.80;88.50;;;;;;5090742;28;20479;-74
2021/11/18 08:59:09;;;;;;;21.98;8.73;;;8.80;88.50;;;;;;5092285;28;20111;-74
2021/11/18 09:04:59;;;;;;;23.20;8.83;;;8.90;88.60;;;;;;5093860;28;20031;-73
2021/11/18 09:07:25;;;;;;;26.20;8.43;;;8.90;88.50;;;;;;5093570;28;20024;-74
2021/11/18 09:09:50;;;;;;;22.85;8.63;;;9.00;88.50;;;;;;5093534;28;20060;-76
2021/11/18 09:12:16;;;;;;;21.00;8.45;;;9.00;88.40;;;;;;5091786;28;20408;-75
2021/11/18 09:14:42;;;;;;;28.20;8.50;;;9.00;88.40;;;;;;5093537;28;20028;-74
2021/11/18 09:17:11;;;;;;;24.38;8.93;;;9.10;88.40;;;;;;5093470;28;20020;-76
2021/11/18 09:19:41;;;;;;;23.70;8.10;;;9.10;88.40;;;;;;5092100;28;20024;-75
2021/11/18 09:22:10;;;;;;;22.23;9.07;;;9.10;88.30;;;;;;5092165;28;20111;-76
2021/11/18 09:25:25;;;;;;;22.83;8.43;;;9.20;88.30;;;;;;5092150;28;20564;-76
2021/11/18 09:27:53;;;;;;;22.77;9.23;;;9.20;88.30;;;;;;5091794;28;20024;-78
2021/11/18 09:30:27;;;;;;;24.35;9.00;;;9.30;88.30;;;;;;5091885;28;20039;-77
2021/11/18 09:32:54;;;;;;;25.73;8.75;;;9.30;88.20;;;;;;5091927;28;20028;-77
2021/11/18 09:35:25;;;;;;;22.38;10.20;;;9.40;88.20;;;;;;5091943;28;20139;-76
2021/11/18 09:41:25;;;;;;;25.20;9.52;;;9.50;88.10;;;;;;5093324;28;20503;-79
2021/11/18 09:44:15;;;;;;;28.88;10.32;;;9.50;88.00;;;;;;5091799;28;20028;-76
2021/11/18 09:50:31;;;;;;;29.50;10.20;;;9.60;87.90;;;;;;5093330;28;20026;-75
2021/11/18 09:53:07;;;;;;;25.35;10.07;;;9.60;87.80;;;;;;5088711;28;20051;-75
2021/11/18 09:55:50;;;;;;;19.65;8.63;;;9.70;87.80;;;;;;5092979;28;20388;-76
2021/11/18 09:58:36;;;;;;;;;;;9.70;87.80;;;;;;5091916;28;20446;-76
2021/11/18 10:01:33;;;;;;;22.05;7.97;;;9.70;87.70;;;;;;5091609;28;19908;-77
2021/11/18 10:04:17;;;;;;;22.60;8.48;;;9.80;87.60;;;;;;5087212;28;20090;-76
2021/11/18 10:06:43;;;;;;;23.52;9.38;;;9.90;87.50;;;;;;5091569;28;20503;-77
2021/11/18 10:09:17;;;;;;;23.35;8.65;;;9.90;87.30;;;;;;5091540;28;20024;-78
2021/11/18 10:11:56;;;;;;;33.00;10.80;;;10.00;87.20;;;;;;5091563;28;20077;-77
2021/11/18 10:14:24;;;;;;;26.27;9.57;;;10.10;87.10;;;;;;5095635;28;20064;-76
2021/11/18 10:17:00;;;;;;;23.05;9.20;;;10.10;87.00;;;;;;5095525;28;20341;-77
2021/11/18 10:19:32;;;;;;;23.98;9.32;;;10.20;86.80;;;;;;5095398;28;20126;-78
2021/11/18 10:21:59;;;;;;;24.25;8.70;;;10.30;86.60;;;;;;5095312;28;20032;-76
2021/11/18 10:24:32;;;;;;;23.42;8.15;;;10.30;87.10;;;;;;5095544;28;20059;-78
2021/11/18 10:30:35;;;;;;;22.40;8.23;;;10.50;86.10;;;;;;5096766;28;20043;-76
2021/11/18 10:33:15;;;;;;;17.70;6.95;;;10.60;85.80;;;;;;5096354;28;20468;-75
2021/11/18 10:35:58;;;;;;;26.15;7.90;;;10.60;85.70;;;;;;5096257;28;20028;-75
2021/11/18 10:38:33;;;;;;;25.23;8.60;;;10.70;85.40;;;;;;5094757;28;20024;-74
2021/11/18 10:41:04;;;;;;;17.45;7.00;;;10.70;85.10;;;;;;5095227;28;20028;-75
2021/11/18 10:43:34;;;;;;;24.70;7.72;;;10.70;85.10;;;;;;5094740;28;20533;-77
2021/11/18 10:46:07;;;;;;;22.05;8.55;;;10.80;84.80;;;;;;5094965;28;20050;-77
2021/11/18 10:48:36;;;;;;;;;;;10.80;84.90;;;;;;5095327;28;20122;-75
2021/11/18 10:51:05;;;;;;;20.60;7.40;;;10.70;84.60;;;;;;5094910;28;19927;-75
2021/11/18 10:57:00;;;;;;;18.75;7.15;;;10.70;84.90;;;;;;5096097;28;20036;-75
2021/11/18 10:59:40;;;;;;;24.58;8.05;;;10.70;84.70;;;;;;5091949;28;20074;-78
2021/11/18 11:02:34;;;;;;;19.52;6.85;;;10.80;84.70;;;;;;5094500;28;20028;-77
2021/11/18 11:05:29;;;;;;;23.55;7.63;;;10.80;84.70;;;;;;5094379;28;20016;-77
2021/11/18 11:07:55;;;;;;;20.08;8.30;;;10.90;84.40;;;;;;5092244;28;20504;-75
2021/11/18 11:10:25;;;;;;;23.27;7.28;;;11.00;84.20;;;;;;5094431;28;20024;-76
2021/11/18 11:13:18;;;;;;;24.05;8.32;;;11.00;84.20;;;;;;5094175;28;20506;-77
2021/11/18 11:16:03;;;;;;;20.43;7.13;;;11.00;83.60;;;;;;5094337;28;20063;-75
2021/11/18 11:18:56;;;;;;;24.55;7.93;;;11.10;83.70;;;;;;5094179;28;20630;-76
2021/11/18 11:21:36;;;;;;;21.98;7.90;;;11.10;83.70;;;;;;5091439;28;20432;-73
2021/11/18 11:24:28;;;;;;;21.75;7.75;;;11.10;83.30;;;;;;5093489;28;20096;-75
2021/11/18 11:26:59;;;;;;;20.15;6.63;;;11.20;83.50;;;;;;5091747;28;20056;-77
2021/11/18 11:29:28;;;;;;;18.17;6.10;;;11.20;83.50;;;;;;5095275;28;20016;-76
2021/11/18 11:32:12;;;;;;;22.45;7.55;;;11.30;83.50;;;;;;5093653;28;20088;-77
2021/11/18 11:35:05;;;;;;;25.25;7.35;;;11.30;83.40;;;;;;5093773;28;20024;-78
2021/11/18 11:37:33;;;;;;;14.65;5.93;;;11.30;83.30;;;;;;5094253;28;20023;-76
2021/11/18 11:40:13;;;;;;;16.83;6.00;;;11.30;83.30;;;;;;5093524;28;20025;-75
2021/11/18 11:42:45;;;;;;;19.45;6.20;;;11.30;83.30;;;;;;5093544;28;20032;-76
2021/11/18 11:45:38;;;;;;;19.60;6.13;;;11.30;83.10;;;;;;5093290;28;20391;-77
2021/11/18 11:48:30;;;;;;;19.85;5.78;;;11.40;82.70;;;;;;5093645;28;20035;-77
2021/11/18 11:51:33;;;;;;;16.23;5.85;;;11.40;82.80;;;;;;5093009;28;20558;-75
2021/11/18 11:54:23;;;;;;;16.65;5.60;;;11.40;82.70;;;;;;5077860;28;20447;-76
2021/11/18 11:56:53;;;;;;;14.48;4.72;;;11.50;82.60;;;;;;5077254;28;20210;-78
2021/11/18 11:59:28;;;;;;;22.55;6.97;;;11.50;82.60;;;;;;5093099;28;20028;-75
2021/11/18 12:02:16;;;;;;;20.52;5.55;;;11.50;81.80;;;;;;5094642;28;20095;-78
2021/11/18 12:05:36;;;;;;;19.92;5.10;;;11.50;81.70;;;;;;5093448;28;20024;-77
2021/11/18 12:08:13;;;;;;;19.90;5.65;;;11.60;81.70;;;;;;5055210;28;20048;-74
2021/11/18 12:10:58;;;;;;;17.00;4.93;;;11.60;81.50;;;;;;5087817;28;20046;-75
2021/11/18 12:13:38;;;;;;;19.00;5.15;;;11.70;81.10;;;;;;5092956;28;20052;-78
2021/11/18 12:16:17;;;;;;;17.00;5.35;;;11.70;81.00;;;;;;5093146;28;20551;-77
2021/11/18 12:18:50;;;;;;;15.63;4.80;;;11.70;80.50;;;;;;5092817;28;20024;-77
2021/11/18 12:21:18;;;;;;;14.80;4.85;;;11.70;80.80;;;;;;5093977;28;20042;-75
2021/11/18 12:24:14;;;;;;;15.52;5.15;;;11.70;80.50;;;;;;5093013;28;20028;-74
2021/11/18 12:27:00;;;;;;;15.98;4.90;;;11.80;80.40;;;;;;5092659;28;20024;-77
2021/11/18 12:29:41;;;;;;;22.38;6.22;;;11.80;80.20;;;;;;5092568;28;20128;-76
2021/11/18 12:32:16;;;;;;;20.73;5.53;;;11.80;79.80;;;;;;5092676;28;20031;-75
2021/11/18 12:35:32;;;;;;;17.90;5.97;;;11.80;79.80;;;;;;5092266;28;20472;-75
2021/11/18 12:38:07;;;;;;;15.95;5.00;;;11.80;79.50;;;;;;5092611;28;20062;-77
2021/11/18 12:41:29;;;;;;;19.55;5.65;;;11.90;79.80;;;;;;5092677;28;20480;-77
2021/11/18 12:47:21;;;;;;;18.35;5.45;;;11.90;79.30;;;;;;5094223;28;20425;-77
2021/11/18 12:49:47;;;;;;;17.67;4.97;;;11.90;79.30;;;;;;5092585;28;20024;-76
2021/11/18 12:52:35;;;;;;;15.95;5.15;;;12.00;79.30;;;;;;5092395;28;20059;-75
2021/11/18 12:55:03;;;;;;;17.92;5.40;;;12.00;79.30;;;;;;5092607;28;20387;-73
2021/11/18 12:57:54;;;;;;;18.63;5.55;;;12.00;78.90;;;;;;5092448;28;20028;-76
2021/11/18 13:00:43;;;;;;;16.08;5.40;;;12.10;79.20;;;;;;5054451;28;20539;-75
2021/11/18 13:03:11;;;;;;;19.30;5.25;;;12.20;79.50;;;;;;5081802;28;20032;-74
2021/11/18 13:05:43;;;;;;;18.52;4.72;;;12.20;78.50;;;;;;5092247;28;20035;-77
2021/11/18 13:08:47;;;;;;;20.85;5.05;;;12.30;78.60;;;;;;5092217;28;20020;-75
2021/11/18 13:11:34;;;;;;;16.63;5.50;;;12.40;78.30;;;;;;5054143;28;20071;-76
2021/11/18 13:17:22;;;;;;;21.25;6.13;;;12.50;77.90;;;;;;5093801;28;20098;-75
2021/11/18 13:19:49;;;;;;;15.13;5.50;;;12.40;77.90;;;;;;5093528;28;20098;-76
2021/11/18 13:22:18;;;;;;;17.70;4.97;;;12.50;77.30;;;;;;5092029;28;20462;-75
2021/11/18 13:25:09;;;;;;;13.57;4.40;;;12.50;77.80;;;;;;5091834;28;20399;-75
2021/11/18 13:27:44;;;;;;;15.88;4.60;;;12.60;77.60;;;;;;5091789;28;20048;-76
2021/11/18 13:30:26;;;;;;;14.90;4.88;;;12.50;77.60;;;;;;5091804;28;20460;-75
2021/11/18 13:32:54;;;;;;;18.35;5.18;;;12.60;77.10;;;;;;5091929;28;20074;-74
2021/11/18 13:35:30;;;;;;;20.33;5.32;;;12.60;76.80;;;;;;5092967;28;20046;-75
2021/11/18 13:38:48;;;;;;;17.10;5.32;;;12.50;76.70;;;;;;5091592;28;20012;-75